sensor_id;sensor_type;location;lat;lon;timestamp;pressure;altitude;pressure_sealevel;temperature;humidity
56330;BME280;42236;48.058;10.632;2023-06-26T00:00:17;94842.31;;;17.27;58.38
56330;BME280;42236;48.058;10.632;2023-06-26T00:03:03;94837.63;;;17.24;56.13
56330;BME280;42236;48.058;10.632;2023-06-26T00:05:48;94839.16;;;17.21;56.20
56330;BME280;42236;48.058;10.632;2023-06-26T00:08:36;94840.72;;;17.19;56.14
56330;BME280;42236;48.058;10.632;2023-06-26T00:11:22;94845.75;;;17.17;56.08
56330;BME280;42236;48.058;10.632;2023-06-26T00:14:08;94847.66;;;17.13;56.41
56330;BME280;42236;48.058;10.632;2023-06-26T00:16:54;94842.19;;;17.09;56.45
56330;BME280;42236;48.058;10.632;2023-06-26T00:19:39;94836.69;;;17.05;56.98
56330;BME280;42236;48.058;10.632;2023-06-26T00:22:25;94834.78;;;17.06;56.68
56330;BME280;42236;48.058;10.632;2023-06-26T00:25:11;94829.31;;;17.06;56.48
56330;BME280;42236;48.058;10.632;2023-06-26T00:27:57;94833.59;;;17.03;57.02
56330;BME280;42236;48.058;10.632;2023-06-26T00:30:43;94839.03;;;17.03;56.95
56330;BME280;42236;48.058;10.632;2023-06-26T00:33:29;94837.03;;;17.00;56.96
56330;BME280;42236;48.058;10.632;2023-06-26T00:36:14;94836.63;;;16.98;57.34
56330;BME280;42236;48.058;10.632;2023-06-26T00:39:00;94836.63;;;16.98;57.25
56330;BME280;42236;48.058;10.632;2023-06-26T00:41:48;94830.81;;;16.96;57.47
56330;BME280;42236;48.058;10.632;2023-06-26T00:44:34;94831.53;;;16.93;57.07
56330;BME280;42236;48.058;10.632;2023-06-26T00:47:20;94820.97;;;16.88;57.25
56330;BME280;42236;48.058;10.632;2023-06-26T00:50:06;94832.63;;;16.85;57.61
56330;BME280;42236;48.058;10.632;2023-06-26T00:52:52;94834.94;;;16.79;58.04
56330;BME280;42236;48.058;10.632;2023-06-26T00:55:38;94831.72;;;16.74;58.13
56330;BME280;42236;48.058;10.632;2023-06-26T00:58:24;94828.59;;;16.72;58.13
56330;BME280;42236;48.058;10.632;2023-06-26T01:01:22;94827.78;;;16.68;60.58
56330;BME280;42236;48.058;10.632;2023-06-26T01:04:16;94829.28;;;16.61;58.66
56330;BME280;42236;48.058;10.632;2023-06-26T01:07:06;94833.88;;;16.57;58.62
56330;BME280;42236;48.058;10.632;2023-06-26T01:09:52;94836.94;;;16.52;58.91
56330;BME280;42236;48.058;10.632;2023-06-26T01:12:50;94832.59;;;16.44;60.73
56330;BME280;42236;48.058;10.632;2023-06-26T01:15:36;94823.53;;;16.33;60.10
56330;BME280;42236;48.058;10.632;2023-06-26T01:18:22;94831.28;;;16.31;60.03
56330;BME280;42236;48.058;10.632;2023-06-26T01:21:10;94832.03;;;16.28;60.28
56330;BME280;42236;48.058;10.632;2023-06-26T01:24:02;94830.41;;;16.23;62.49
56330;BME280;42236;48.058;10.632;2023-06-26T01:26:51;94822.59;;;16.18;60.60
56330;BME280;42236;48.058;10.632;2023-06-26T01:29:37;94812.88;;;16.17;61.03
56330;BME280;42236;48.058;10.632;2023-06-26T01:32:24;94819.03;;;16.14;60.77
56330;BME280;42236;48.058;10.632;2023-06-26T01:35:11;94808.53;;;16.12;60.92
56330;BME280;42236;48.058;10.632;2023-06-26T01:38:19;94816.63;;;16.09;64.45
56330;BME280;42236;48.058;10.632;2023-06-26T01:41:06;94813.50;;;16.07;61.36
56330;BME280;42236;48.058;10.632;2023-06-26T01:47:05;94806.38;;;15.95;63.72
56330;BME280;42236;48.058;10.632;2023-06-26T01:50:05;94797.38;;;15.91;65.21
56330;BME280;42236;48.058;10.632;2023-06-26T01:56:00;94803.59;;;15.88;64.56
56330;BME280;42236;48.058;10.632;2023-06-26T01:58:50;94801.22;;;15.86;62.09
56330;BME280;42236;48.058;10.632;2023-06-26T02:01:40;94802.31;;;15.82;62.77
56330;BME280;42236;48.058;10.632;2023-06-26T02:04:25;94802.66;;;15.76;62.98
56330;BME280;42236;48.058;10.632;2023-06-26T02:07:11;94804.19;;;15.74;63.33
56330;BME280;42236;48.058;10.632;2023-06-26T02:09:57;94808.06;;;15.73;63.15
56330;BME280;42236;48.058;10.632;2023-06-26T02:12:43;94805.25;;;15.69;63.25
56330;BME280;42236;48.058;10.632;2023-06-26T02:15:28;94806.72;;;15.63;63.71
56330;BME280;42236;48.058;10.632;2023-06-26T02:18:14;94821.06;;;15.60;63.92
56330;BME280;42236;48.058;10.632;2023-06-26T02:21:00;94816.34;;;15.57;63.79
56330;BME280;42236;48.058;10.632;2023-06-26T02:23:48;94819.44;;;15.55;63.93
56330;BME280;42236;48.058;10.632;2023-06-26T02:26:33;94811.59;;;15.50;64.13
56330;BME280;42236;48.058;10.632;2023-06-26T02:29:19;94812.34;;;15.47;64.46
56330;BME280;42236;48.058;10.632;2023-06-26T02:32:05;94808.03;;;15.46;64.53
56330;BME280;42236;48.058;10.632;2023-06-26T02:34:51;94813.13;;;15.48;64.42
56330;BME280;42236;48.058;10.632;2023-06-26T02:37:37;94811.56;;;15.47;64.41
56330;BME280;42236;48.058;10.632;2023-06-26T02:40:22;94813.47;;;15.46;64.64
56330;BME280;42236;48.058;10.632;2023-06-26T02:43:08;94814.28;;;15.47;64.79
56330;BME280;42236;48.058;10.632;2023-06-26T02:45:54;94824.00;;;15.48;64.30
56330;BME280;42236;48.058;10.632;2023-06-26T02:48:40;94812.34;;;15.47;64.43
56330;BME280;42236;48.058;10.632;2023-06-26T02:51:25;94817.72;;;15.44;64.76
56330;BME280;42236;48.058;10.632;2023-06-26T02:54:11;94822.75;;;15.42;64.97
56330;BME280;42236;48.058;10.632;2023-06-26T02:56:57;94823.47;;;15.39;64.72
56330;BME280;42236;48.058;10.632;2023-06-26T02:59:43;94826.94;;;15.35;65.34
56330;BME280;42236;48.058;10.632;2023-06-26T03:02:28;94829.59;;;15.32;65.35
56330;BME280;42236;48.058;10.632;2023-06-26T03:05:14;94813.22;;;15.28;65.33
56330;BME280;42236;48.058;10.632;2023-06-26T03:08:00;94813.59;;;15.27;65.54
56330;BME280;42236;48.058;10.632;2023-06-26T03:10:45;94815.09;;;15.24;65.99
56330;BME280;42236;48.058;10.632;2023-06-26T03:13:33;94810.47;;;15.25;66.06
56330;BME280;42236;48.058;10.632;2023-06-26T03:16:19;94815.50;;;15.23;66.09
56330;BME280;42236;48.058;10.632;2023-06-26T03:19:05;94815.84;;;15.21;66.02
56330;BME280;42236;48.058;10.632;2023-06-26T03:21:50;94811.16;;;15.18;66.15
56330;BME280;42236;48.058;10.632;2023-06-26T03:24:36;94812.28;;;15.17;66.24
56330;BME280;42236;48.058;10.632;2023-06-26T03:27:22;94806.44;;;15.15;66.54
56330;BME280;42236;48.058;10.632;2023-06-26T03:30:08;94811.88;;;15.15;66.78
56330;BME280;42236;48.058;10.632;2023-06-26T03:32:54;94809.53;;;15.13;66.89
56330;BME280;42236;48.058;10.632;2023-06-26T03:35:40;94802.16;;;15.14;66.87
56330;BME280;42236;48.058;10.632;2023-06-26T03:38:25;94809.53;;;15.13;67.05
56330;BME280;42236;48.058;10.632;2023-06-26T03:41:11;94804.88;;;15.14;66.52
56330;BME280;42236;48.058;10.632;2023-06-26T03:43:57;94811.88;;;15.15;66.94
56330;BME280;42236;48.058;10.632;2023-06-26T03:46:43;94803.34;;;15.17;66.89
56330;BME280;42236;48.058;10.632;2023-06-26T03:49:28;94813.53;;;15.23;66.85
56330;BME280;42236;48.058;10.632;2023-06-26T03:52:14;94809.66;;;15.24;66.88
56330;BME280;42236;48.058;10.632;2023-06-26T03:55:00;94813.97;;;15.25;67.10
56330;BME280;42236;48.058;10.632;2023-06-26T03:57:46;94810.09;;;15.26;66.96
56330;BME280;42236;48.058;10.632;2023-06-26T04:00:31;94817.50;;;15.29;67.04
56330;BME280;42236;48.058;10.632;2023-06-26T04:03:17;94811.34;;;15.32;67.19
56330;BME280;42236;48.058;10.632;2023-06-26T04:06:03;94809.88;;;15.39;66.73
56330;BME280;42236;48.058;10.632;2023-06-26T04:08:49;94804.53;;;15.46;66.32
56330;BME280;42236;48.058;10.632;2023-06-26T04:11:37;94809.38;;;15.56;66.71
56330;BME280;42236;48.058;10.632;2023-06-26T04:14:23;94812.28;;;15.70;65.97
56330;BME280;42236;48.058;10.632;2023-06-26T04:17:09;94811.41;;;15.93;65.67
56330;BME280;42236;48.058;10.632;2023-06-26T04:19:55;94813.34;;;16.26;64.98
56330;BME280;42236;48.058;10.632;2023-06-26T04:22:41;94823.94;;;16.72;64.25
56330;BME280;42236;48.058;10.632;2023-06-26T04:25:27;94818.19;;;17.29;62.46
56330;BME280;42236;48.058;10.632;2023-06-26T04:28:14;94827.06;;;17.78;61.52
56330;BME280;42236;48.058;10.632;2023-06-26T04:31:03;94820.66;;;18.29;60.23
56330;BME280;42236;48.058;10.632;2023-06-26T04:33:49;94827.44;;;18.71;58.99
56330;BME280;42236;48.058;10.632;2023-06-26T04:36:36;94826.69;;;19.06;57.57
56330;BME280;42236;48.058;10.632;2023-06-26T04:39:24;94820.06;;;19.43;56.90
56330;BME280;42236;48.058;10.632;2023-06-26T04:42:10;94830.19;;;19.75;55.75
56330;BME280;42236;48.058;10.632;2023-06-26T04:44:57;94829.69;;;20.05;54.78
56330;BME280;42236;48.058;10.632;2023-06-26T04:47:43;94822.16;;;20.34;54.06
56330;BME280;42236;48.058;10.632;2023-06-26T04:54:10;94829.00;;;20.78;53.58
56330;BME280;42236;48.058;10.632;2023-06-26T04:56:56;94827.66;;;21.01;52.89
56330;BME280;42236;48.058;10.632;2023-06-26T04:59:42;94826.75;;;21.18;52.40
56330;BME280;42236;48.058;10.632;2023-06-26T05:02:49;94829.72;;;21.42;51.17
56330;BME280;42236;48.058;10.632;2023-06-26T05:05:35;94825.56;;;21.68;50.94
56330;BME280;42236;48.058;10.632;2023-06-26T05:08:22;94828.91;;;21.86;50.49
56330;BME280;42236;48.058;10.632;2023-06-26T05:11:17;94822.03;;;22.05;49.23
56330;BME280;42236;48.058;10.632;2023-06-26T05:14:03;94830.09;;;22.20;49.81
56330;BME280;42236;48.058;10.632;2023-06-26T05:16:49;94826.84;;;22.32;49.71
56330;BME280;42236;48.058;10.632;2023-06-26T05:19:35;94828.34;;;22.67;49.28
56330;BME280;42236;48.058;10.632;2023-06-26T05:22:21;94825.53;;;23.02;48.99
56330;BME280;42236;48.058;10.632;2023-06-26T05:25:09;94822.94;;;23.18;48.01
56330;BME280;42236;48.058;10.632;2023-06-26T05:27:56;94826.63;;;23.31;48.89
56330;BME280;42236;48.058;10.632;2023-06-26T05:30:43;94832.50;;;23.57;47.97
56330;BME280;42236;48.058;10.632;2023-06-26T05:33:47;94829.47;;;23.75;48.34
56330;BME280;42236;48.058;10.632;2023-06-26T05:36:34;94826.75;;;23.95;47.58
56330;BME280;42236;48.058;10.632;2023-06-26T05:39:21;94829.56;;;24.11;47.92
56330;BME280;42236;48.058;10.632;2023-06-26T05:42:10;94827.25;;;24.30;47.70
56330;BME280;42236;48.058;10.632;2023-06-26T05:44:56;94836.34;;;24.50;47.17
56330;BME280;42236;48.058;10.632;2023-06-26T05:48:02;94832.94;;;24.62;45.11
56330;BME280;42236;48.058;10.632;2023-06-26T05:50:48;94830.03;;;24.86;46.88
56330;BME280;42236;48.058;10.632;2023-06-26T05:53:34;94828.69;;;24.94;46.13
56330;BME280;42236;48.058;10.632;2023-06-26T05:56:21;94833.34;;;25.13;46.00
56330;BME280;42236;48.058;10.632;2023-06-26T05:59:23;94839.25;;;25.32;44.43
56330;BME280;42236;48.058;10.632;2023-06-26T06:02:10;94834.94;;;25.47;45.57
56330;BME280;42236;48.058;10.632;2023-06-26T06:04:56;94831.91;;;25.58;45.44
56330;BME280;42236;48.058;10.632;2023-06-26T06:07:42;94838.38;;;25.68;45.46
56330;BME280;42236;48.058;10.632;2023-06-26T06:10:27;94834.06;;;25.83;45.10
56330;BME280;42236;48.058;10.632;2023-06-26T06:13:16;94832.44;;;25.86;45.02
56330;BME280;42236;48.058;10.632;2023-06-26T06:16:02;94834.81;;;26.00;44.88
56330;BME280;42236;48.058;10.632;2023-06-26T06:18:48;94838.41;;;26.13;44.41
56330;BME280;42236;48.058;10.632;2023-06-26T06:21:34;94833.72;;;26.39;44.50
56330;BME280;42236;48.058;10.632;2023-06-26T06:24:20;94840.00;;;26.69;44.33
56330;BME280;42236;48.058;10.632;2023-06-26T06:27:08;94831.97;;;26.88;43.32
56330;BME280;42236;48.058;10.632;2023-06-26T06:29:54;94840.19;;;27.04;43.33
56330;BME280;42236;48.058;10.632;2023-06-26T06:32:39;94833.75;;;27.20;43.01
56330;BME280;42236;48.058;10.632;2023-06-26T06:35:25;94834.31;;;27.40;41.78
56330;BME280;42236;48.058;10.632;2023-06-26T06:38:11;94835.97;;;27.38;41.62
56330;BME280;42236;48.058;10.632;2023-06-26T06:40:57;94838.66;;;27.29;40.87
56330;BME280;42236;48.058;10.632;2023-06-26T06:43:43;94837.50;;;27.13;40.71
56330;BME280;42236;48.058;10.632;2023-06-26T06:46:28;94839.94;;;26.86;40.77
56330;BME280;42236;48.058;10.632;2023-06-26T06:49:14;94833.38;;;26.67;40.73
56330;BME280;42236;48.058;10.632;2023-06-26T06:52:00;94840.22;;;26.62;40.80
56330;BME280;42236;48.058;10.632;2023-06-26T06:54:56;94839.47;;;26.32;40.59
56330;BME280;42236;48.058;10.632;2023-06-26T06:58:02;94842.63;;;26.18;41.15
56330;BME280;42236;48.058;10.632;2023-06-26T07:00:51;94838.00;;;26.28;40.87
56330;BME280;42236;48.058;10.632;2023-06-26T07:03:37;94843.69;;;26.37;40.47
56330;BME280;42236;48.058;10.632;2023-06-26T07:06:23;94838.72;;;26.45;40.33
56330;BME280;42236;48.058;10.632;2023-06-26T07:09:09;94842.38;;;26.42;40.58
56330;BME280;42236;48.058;10.632;2023-06-26T07:11:55;94840.03;;;26.40;40.11
56330;BME280;42236;48.058;10.632;2023-06-26T07:14:48;94840.03;;;26.40;40.15
56330;BME280;42236;48.058;10.632;2023-06-26T07:17:34;94847.91;;;26.42;40.36
56330;BME280;42236;48.058;10.632;2023-06-26T07:20:20;94844.94;;;26.49;40.28
56330;BME280;42236;48.058;10.632;2023-06-26T07:23:06;94845.56;;;26.40;40.59
56330;BME280;42236;48.058;10.632;2023-06-26T07:25:52;94844.16;;;26.48;40.28
56330;BME280;42236;48.058;10.632;2023-06-26T07:28:37;94844.06;;;26.52;40.03
56330;BME280;42236;48.058;10.632;2023-06-26T07:31:23;94851.13;;;26.53;40.17
56330;BME280;42236;48.058;10.632;2023-06-26T07:34:09;94844.91;;;26.65;40.14
56330;BME280;42236;48.058;10.632;2023-06-26T07:36:55;94836.59;;;26.78;39.59
56330;BME280;42236;48.058;10.632;2023-06-26T07:39:40;94843.72;;;26.92;39.54
56330;BME280;42236;48.058;10.632;2023-06-26T07:42:26;94841.94;;;26.98;39.58
56330;BME280;42236;48.058;10.632;2023-06-26T07:45:12;94845.81;;;27.13;38.88
56330;BME280;42236;48.058;10.632;2023-06-26T07:47:58;94841.31;;;27.19;39.18
56330;BME280;42236;48.058;10.632;2023-06-26T07:50:44;94836.44;;;27.23;38.83
56330;BME280;42236;48.058;10.632;2023-06-26T07:53:29;94829.44;;;27.32;39.03
56330;BME280;42236;48.058;10.632;2023-06-26T07:56:15;94831.75;;;27.46;38.66
56330;BME280;42236;48.058;10.632;2023-06-26T07:59:01;94832.06;;;27.48;37.79
56330;BME280;42236;48.058;10.632;2023-06-26T08:01:50;94838.06;;;27.47;37.29
56330;BME280;42236;48.058;10.632;2023-06-26T08:04:37;94836.84;;;27.48;37.53
56330;BME280;42236;48.058;10.632;2023-06-26T08:07:26;94836.28;;;27.53;37.14
56330;BME280;42236;48.058;10.632;2023-06-26T08:10:11;94835.69;;;27.71;37.48
56330;BME280;42236;48.058;10.632;2023-06-26T08:12:57;94833.78;;;27.80;37.31
56330;BME280;42236;48.058;10.632;2023-06-26T08:15:43;94835.56;;;27.87;37.21
56330;BME280;42236;48.058;10.632;2023-06-26T08:18:29;94826.47;;;27.86;37.15
56330;BME280;42236;48.058;10.632;2023-06-26T08:21:15;94837.44;;;27.90;37.22
56330;BME280;42236;48.058;10.632;2023-06-26T08:24:10;94827.78;;;27.95;37.34
56330;BME280;42236;48.058;10.632;2023-06-26T08:26:59;94828.19;;;28.06;37.07
56330;BME280;42236;48.058;10.632;2023-06-26T08:29:45;94836.50;;;28.06;36.46
56330;BME280;42236;48.058;10.632;2023-06-26T08:32:31;94832.53;;;27.94;36.64
56330;BME280;42236;48.058;10.632;2023-06-26T08:35:17;94837.72;;;28.05;36.24
56330;BME280;42236;48.058;10.632;2023-06-26T08:38:02;94834.63;;;28.03;35.95
56330;BME280;42236;48.058;10.632;2023-06-26T08:40:49;94835.41;;;28.03;36.23
56330;BME280;42236;48.058;10.632;2023-06-26T08:43:35;94831.28;;;28.08;36.05
56330;BME280;42236;48.058;10.632;2023-06-26T08:46:21;94825.91;;;28.14;35.32
56330;BME280;42236;48.058;10.632;2023-06-26T08:52:23;94823.22;;;28.23;35.41
56330;BME280;42236;48.058;10.632;2023-06-26T08:55:10;94822.38;;;28.35;35.64
56330;BME280;42236;48.058;10.632;2023-06-26T08:57:59;94819.78;;;28.41;35.63
56330;BME280;42236;48.058;10.632;2023-06-26T09:00:45;94821.03;;;28.40;35.29
56330;BME280;42236;48.058;10.632;2023-06-26T09:03:31;94822.00;;;28.46;35.30
56330;BME280;42236;48.058;10.632;2023-06-26T09:06:18;94818.84;;;28.57;35.31
56330;BME280;42236;48.058;10.632;2023-06-26T09:09:04;94829.22;;;28.65;35.01
56330;BME280;42236;48.058;10.632;2023-06-26T09:11:50;94828.97;;;28.72;34.97
56330;BME280;42236;48.058;10.632;2023-06-26T09:14:41;94827.53;;;28.68;34.18
56330;BME280;42236;48.058;10.632;2023-06-26T09:17:39;94825.59;;;28.78;34.58
56330;BME280;42236;48.058;10.632;2023-06-26T09:20:27;94822.09;;;28.86;35.13
56330;BME280;42236;48.058;10.632;2023-06-26T09:23:14;94831.75;;;29.04;34.70
56330;BME280;42236;48.058;10.632;2023-06-26T09:26:02;94813.22;;;29.01;33.48
56330;BME280;42236;48.058;10.632;2023-06-26T09:28:49;94818.59;;;28.95;33.88
56330;BME280;42236;48.058;10.632;2023-06-26T09:31:39;94813.22;;;29.01;33.41
56330;BME280;42236;48.058;10.632;2023-06-26T09:34:33;94819.75;;;29.07;33.65
56330;BME280;42236;48.058;10.632;2023-06-26T09:37:19;94819.47;;;29.14;33.28
56330;BME280;42236;48.058;10.632;2023-06-26T09:40:05;94811.72;;;29.09;33.40
56330;BME280;42236;48.058;10.632;2023-06-26T09:42:52;94812.34;;;29.13;33.50
56330;BME280;42236;48.058;10.632;2023-06-26T09:45:39;94820.38;;;29.11;33.65
56330;BME280;42236;48.058;10.632;2023-06-26T09:48:28;94821.09;;;28.71;33.44
56330;BME280;42236;48.058;10.632;2023-06-26T09:51:16;94810.25;;;28.64;34.37
56330;BME280;42236;48.058;10.632;2023-06-26T09:54:03;94816.16;;;28.75;33.98
56330;BME280;42236;48.058;10.632;2023-06-26T09:56:49;94814.25;;;28.94;33.96
56330;BME280;42236;48.058;10.632;2023-06-26T09:59:35;94810.19;;;29.08;33.94
56330;BME280;42236;48.058;10.632;2023-06-26T10:02:21;94811.72;;;29.09;33.78
56330;BME280;42236;48.058;10.632;2023-06-26T10:05:07;94813.13;;;29.13;33.57
56330;BME280;42236;48.058;10.632;2023-06-26T10:07:59;94801.59;;;29.24;33.88
56330;BME280;42236;48.058;10.632;2023-06-26T10:10:49;94790.22;;;29.50;33.33
56330;BME280;42236;48.058;10.632;2023-06-26T10:13:38;94796.13;;;29.61;32.57
56330;BME280;42236;48.058;10.632;2023-06-26T10:16:26;94797.97;;;29.64;32.03
56330;BME280;42236;48.058;10.632;2023-06-26T10:19:16;94795.19;;;29.46;33.15
56330;BME280;42236;48.058;10.632;2023-06-26T10:22:07;94806.00;;;29.53;32.82
56330;BME280;42236;48.058;10.632;2023-06-26T10:24:55;94800.28;;;29.56;32.44
56330;BME280;42236;48.058;10.632;2023-06-26T10:27:47;94802.94;;;29.69;32.50
56330;BME280;42236;48.058;10.632;2023-06-26T10:30:36;94802.34;;;29.84;31.71
56330;BME280;42236;48.058;10.632;2023-06-26T10:33:22;94792.63;;;30.07;32.12
56330;BME280;42236;48.058;10.632;2023-06-26T10:36:29;94799.28;;;30.18;32.15
56330;BME280;42236;48.058;10.632;2023-06-26T10:39:24;94786.47;;;30.30;31.29
56330;BME280;42236;48.058;10.632;2023-06-26T10:42:10;94798.03;;;30.47;31.58
56330;BME280;42236;48.058;10.632;2023-06-26T10:45:08;94791.84;;;30.34;30.22
56330;BME280;42236;48.058;10.632;2023-06-26T10:47:57;94799.13;;;30.40;31.38
56330;BME280;42236;48.058;10.632;2023-06-26T10:50:43;94781.31;;;30.19;30.90
56330;BME280;42236;48.058;10.632;2023-06-26T10:53:32;94792.31;;;30.14;31.47
56330;BME280;42236;48.058;10.632;2023-06-26T10:56:20;94787.38;;;30.18;31.17
56330;BME280;42236;48.058;10.632;2023-06-26T10:59:18;94789.25;;;30.30;30.76
56330;BME280;42236;48.058;10.632;2023-06-26T11:02:04;94785.50;;;30.52;31.30
56330;BME280;42236;48.058;10.632;2023-06-26T11:04:50;94784.38;;;30.49;31.24
56330;BME280;42236;48.058;10.632;2023-06-26T11:08:02;94781.25;;;30.66;30.98
56330;BME280;42236;48.058;10.632;2023-06-26T11:10:53;94782.97;;;30.63;30.94
56330;BME280;42236;48.058;10.632;2023-06-26T11:13:45;94785.41;;;30.79;30.71
56330;BME280;42236;48.058;10.632;2023-06-26T11:16:32;94776.94;;;30.74;30.92
56330;BME280;42236;48.058;10.632;2023-06-26T11:19:19;94789.63;;;30.56;31.18
56330;BME280;42236;48.058;10.632;2023-06-26T11:22:05;94782.53;;;30.65;30.97
56330;BME280;42236;48.058;10.632;2023-06-26T11:24:53;94790.53;;;30.72;30.46
56330;BME280;42236;48.058;10.632;2023-06-26T11:27:45;94787.44;;;30.88;30.95
56330;BME280;42236;48.058;10.632;2023-06-26T11:30:31;94788.59;;;31.06;31.03
56330;BME280;42236;48.058;10.632;2023-06-26T11:33:26;94775.69;;;30.84;30.75
56330;BME280;42236;48.058;10.632;2023-06-26T11:36:12;94784.38;;;30.49;31.34
56330;BME280;42236;48.058;10.632;2023-06-26T11:38:59;94781.31;;;30.19;31.37
56330;BME280;42236;48.058;10.632;2023-06-26T11:41:46;94789.06;;;30.06;31.50
56330;BME280;42236;48.058;10.632;2023-06-26T11:44:31;94779.03;;;30.27;31.25
56330;BME280;42236;48.058;10.632;2023-06-26T11:47:19;94781.97;;;30.33;31.06
56330;BME280;42236;48.058;10.632;2023-06-26T11:50:05;94784.28;;;30.34;31.13
56330;BME280;42236;48.058;10.632;2023-06-26T11:52:58;94780.25;;;30.35;30.64
56330;BME280;42236;48.058;10.632;2023-06-26T11:55:44;94775.38;;;30.73;31.07
56330;BME280;42236;48.058;10.632;2023-06-26T11:58:29;94788.41;;;30.57;30.62
56330;BME280;42236;48.058;10.632;2023-06-26T12:01:16;94782.59;;;30.28;31.01
56330;BME280;42236;48.058;10.632;2023-06-26T12:04:04;94781.03;;;29.99;31.51
56330;BME280;42236;48.058;10.632;2023-06-26T12:06:53;94779.31;;;29.83;31.93
56330;BME280;42236;48.058;10.632;2023-06-26T12:09:51;94773.75;;;29.83;31.96
56330;BME280;42236;48.058;10.632;2023-06-26T12:12:39;94773.59;;;30.05;31.62
56330;BME280;42236;48.058;10.632;2023-06-26T12:15:25;94776.38;;;30.42;31.46
56330;BME280;42236;48.058;10.632;2023-06-26T12:18:11;94766.69;;;30.71;31.28
56330;BME280;42236;48.058;10.632;2023-06-26T12:20:57;94767.88;;;30.97;30.47
56330;BME280;42236;48.058;10.632;2023-06-26T12:23:43;94771.16;;;30.96;30.77
56330;BME280;42236;48.058;10.632;2023-06-26T12:26:29;94761.72;;;30.93;30.22
56330;BME280;42236;48.058;10.632;2023-06-26T12:29:16;94774.41;;;30.85;30.55
56330;BME280;42236;48.058;10.632;2023-06-26T12:32:03;94778.75;;;30.77;30.59
56330;BME280;42236;48.058;10.632;2023-06-26T12:34:49;94776.75;;;30.87;30.36
56330;BME280;42236;48.058;10.632;2023-06-26T12:37:38;94775.31;;;31.00;29.47
56330;BME280;42236;48.058;10.632;2023-06-26T12:40:33;94764.19;;;31.24;29.69
56330;BME280;42236;48.058;10.632;2023-06-26T12:43:23;94766.94;;;31.58;29.81
56330;BME280;42236;48.058;10.632;2023-06-26T12:46:12;94754.00;;;31.45;29.31
56330;BME280;42236;48.058;10.632;2023-06-26T12:49:05;94769.09;;;31.06;29.59
56330;BME280;42236;48.058;10.632;2023-06-26T12:51:54;94766.56;;;30.83;29.33
56330;BME280;42236;48.058;10.632;2023-06-26T12:54:41;94755.28;;;30.69;29.99
56330;BME280;42236;48.058;10.632;2023-06-26T12:57:27;94753.50;;;30.38;30.21
56330;BME280;42236;48.058;10.632;2023-06-26T13:00:13;94762.81;;;30.26;29.90
56330;BME280;42236;48.058;10.632;2023-06-26T13:02:59;94753.66;;;30.16;30.23
56330;BME280;42236;48.058;10.632;2023-06-26T13:05:48;94752.72;;;30.19;30.41
56330;BME280;42236;48.058;10.632;2023-06-26T13:08:34;94753.34;;;30.14;30.78
56330;BME280;42236;48.058;10.632;2023-06-26T13:11:20;94747.03;;;30.13;30.91
56330;BME280;42236;48.058;10.632;2023-06-26T13:14:06;94749.00;;;30.13;30.96
56330;BME280;42236;48.058;10.632;2023-06-26T13:16:52;94741.47;;;30.13;31.24
56330;BME280;42236;48.058;10.632;2023-06-26T13:19:38;94745.47;;;30.12;31.12
56330;BME280;42236;48.058;10.632;2023-06-26T13:22:23;94750.88;;;30.16;31.29
56330;BME280;42236;48.058;10.632;2023-06-26T13:25:09;94740.53;;;30.16;31.32
56330;BME280;42236;48.058;10.632;2023-06-26T13:27:55;94737.75;;;30.26;31.42
56330;BME280;42236;48.058;10.632;2023-06-26T13:30:41;94734.00;;;30.47;30.99
56330;BME280;42236;48.058;10.632;2023-06-26T13:33:26;94736.44;;;30.54;30.98
56330;BME280;42236;48.058;10.632;2023-06-26T13:36:12;94742.06;;;30.36;31.29
56330;BME280;42236;48.058;10.632;2023-06-26T13:38:58;94732.81;;;30.02;31.09
56330;BME280;42236;48.058;10.632;2023-06-26T13:41:44;94728.81;;;29.85;31.33
56330;BME280;42236;48.058;10.632;2023-06-26T13:44:30;94724.31;;;29.78;31.21
56330;BME280;42236;48.058;10.632;2023-06-26T13:47:16;94735.56;;;29.65;31.14
56330;BME280;42236;48.058;10.632;2023-06-26T13:50:02;94728.44;;;29.55;30.90
56330;BME280;42236;48.058;10.632;2023-06-26T13:52:47;94725.66;;;29.64;31.35
56330;BME280;42236;48.058;10.632;2023-06-26T13:55:34;94728.00;;;29.66;31.63
56330;BME280;42236;48.058;10.632;2023-06-26T13:58:20;94725.56;;;29.77;31.68
56330;BME280;42236;48.058;10.632;2023-06-26T14:01:09;94730.03;;;30.02;31.77
56330;BME280;42236;48.058;10.632;2023-06-26T14:03:55;94729.22;;;30.29;32.04
56330;BME280;42236;48.058;10.632;2023-06-26T14:06:41;94738.75;;;30.56;31.46
56330;BME280;42236;48.058;10.632;2023-06-26T14:09:27;94743.69;;;30.61;31.30
56330;BME280;42236;48.058;10.632;2023-06-26T14:12:13;94739.13;;;30.82;31.42
56330;BME280;42236;48.058;10.632;2023-06-26T14:14:59;94737.19;;;31.07;30.89
56330;BME280;42236;48.058;10.632;2023-06-26T14:17:44;94733.28;;;31.37;30.50
56330;BME280;42236;48.058;10.632;2023-06-26T14:20:30;94741.84;;;31.58;30.63
56330;BME280;42236;48.058;10.632;2023-06-26T14:23:18;94745.22;;;31.62;30.38
56330;BME280;42236;48.058;10.632;2023-06-26T14:26:03;94739.34;;;31.60;30.61
56330;BME280;42236;48.058;10.632;2023-06-26T14:28:49;94750.00;;;31.46;30.88
56330;BME280;42236;48.058;10.632;2023-06-26T14:31:35;94743.69;;;31.03;31.09
56330;BME280;42236;48.058;10.632;2023-06-26T14:34:20;94767.22;;;30.60;31.72
56330;BME280;42236;48.058;10.632;2023-06-26T14:37:06;94774.53;;;30.20;33.11
56330;BME280;42236;48.058;10.632;2023-06-26T14:39:52;94787.63;;;29.65;34.05
56330;BME280;42236;48.058;10.632;2023-06-26T14:42:38;94785.06;;;29.21;34.74
56330;BME280;42236;48.058;10.632;2023-06-26T14:45:24;94792.31;;;29.18;35.40
56330;BME280;42236;48.058;10.632;2023-06-26T14:48:09;94789.56;;;29.27;35.51